DAAV

Jijel Ferhat Abbas Airport

Airport
ICAO code
DAAV
IATA Code
GJL
Summary
ICAO Region
AFI
ICAO Territory
Location

,

Serving
Jijel
Elevation
36 ft
Coordinates
36° 47' 42" N , 5° 52' 25" E
Metar
DAAV 041200Z 26014G24KT 220V290 9999 FEW020 FEW023TCU SCT033 16/05 Q1017

Runways

Designator Length Width Surface Rops
17/35 2400 45 ASP No/No

Airport map

Aerial View

SKYbrary Partners:

Safety knowledge contributed by: